Time;durP1;ratioP1;P1;durP2;ratioP2;P2;SDS_P1;SDS_P2;PMS_P1;PMS_P2;Temp;Humidity;BMP_temperature;BMP_pressure;BME280_temperature;BME280_humidity;BME280_pressure;Samples;Min_cycle;Max_cycle;Signal;HPM_P1;HPM_P2
2021/06/16 00:00:29;;;;;;;0.10;0.10;;;;;;;20.41;52.97;101895.19;5090728;28;20028;-81
2021/06/16 00:02:55;;;;;;;0.00;0.00;;;;;;;20.39;53.03;101901.56;5080524;28;20032;-82
2021/06/16 00:05:27;;;;;;;0.00;0.00;;;;;;;20.43;52.57;101897.81;5086090;28;20024;-81
2021/06/16 00:07:54;;;;;;;0.10;0.10;;;;;;;20.39;53.25;101885.41;5075134;22;20050;-86
2021/06/16 00:10:24;;;;;;;0.00;0.00;;;;;;;20.41;53.24;101880.84;5016712;28;20042;-86
2021/06/16 00:12:51;;;;;;;0.20;0.20;;;;;;;20.33;53.73;101882.06;5016336;28;20477;-85
2021/06/16 00:15:22;;;;;;;0.00;0.00;;;;;;;20.29;53.71;101869.69;5014873;28;20137;-86
2021/06/16 00:17:49;;;;;;;0.00;0.00;;;;;;;20.23;53.89;101869.97;5016178;28;20057;-86
2021/06/16 00:20:15;;;;;;;0.20;0.20;;;;;;;20.20;53.37;101865.59;5015843;28;20390;-86
2021/06/16 00:22:42;;;;;;;0.00;0.00;;;;;;;20.14;53.95;101865.88;5016153;28;20422;-85
2021/06/16 00:25:10;;;;;;;0.10;0.10;;;;;;;20.12;53.99;101866.88;5014909;28;20064;-85
2021/06/16 00:27:37;;;;;;;0.10;0.10;;;;;;;20.10;53.97;101876.81;5015690;28;20038;-85
2021/06/16 00:30:07;;;;;;;0.00;0.00;;;;;;;20.08;54.24;101873.34;5015850;28;20022;-86
2021/06/16 00:32:33;;;;;;;0.00;0.00;;;;;;;20.03;54.27;101874.41;5015433;28;20026;-85
2021/06/16 00:35:00;;;;;;;0.00;0.00;;;;;;;20.04;53.37;101876.16;5015412;28;20022;-85
2021/06/16 00:37:26;;;;;;;0.05;0.05;;;;;;;20.06;53.70;101872.53;5015714;28;20026;-84
2021/06/16 00:39:55;;;;;;;0.00;0.00;;;;;;;20.04;53.15;101869.91;5013880;28;20463;-85
2021/06/16 00:42:23;;;;;;;0.00;0.00;;;;;;;20.04;53.57;101877.97;5014983;28;20117;-85
2021/06/16 00:44:50;;;;;;;0.00;0.00;;;;;;;20.01;53.81;101876.31;5014873;28;20469;-85
2021/06/16 00:47:17;;;;;;;0.00;0.00;;;;;;;20.02;54.08;101877.16;5015242;28;20439;-84
2021/06/16 00:49:44;;;;;;;0.10;0.10;;;;;;;19.97;54.54;101880.03;5015819;28;20084;-85
2021/06/16 00:52:11;;;;;;;0.00;0.00;;;;;;;19.94;54.59;101869.44;5015630;28;20373;-85
2021/06/16 00:54:37;;;;;;;0.00;0.00;;;;;;;19.95;54.56;101870.28;5015311;28;20105;-85
2021/06/16 00:57:04;;;;;;;0.00;0.00;;;;;;;19.91;54.43;101872.25;5015628;28;20339;-85
2021/06/16 00:59:39;;;;;;;0.00;0.00;;;;;;;19.93;54.57;101866.81;5015167;28;20021;-85
2021/06/16 01:02:05;;;;;;;0.10;0.10;;;;;;;19.90;54.33;101865.13;5015268;28;20129;-85
2021/06/16 01:04:33;;;;;;;0.05;0.05;;;;;;;19.90;54.25;101858.88;5015163;28;20369;-85
2021/06/16 01:07:06;;;;;;;0.77;0.77;;;;;;;19.91;54.53;101861.47;5014268;28;20021;-85
2021/06/16 01:09:37;;;;;;;0.00;0.00;;;;;;;19.90;54.24;101857.06;5014628;28;20117;-85
2021/06/16 01:12:34;;;;;;;0.00;0.00;;;;;;;19.94;54.41;101849.72;5014893;28;20373;-85
2021/06/16 01:15:05;;;;;;;0.10;0.10;;;;;;;19.90;54.16;101851.69;5014880;28;20048;-84
2021/06/16 01:28:44;;;;;;;0.05;0.05;;;;;;;19.81;54.99;101841.28;5074931;27;20634;-85
2021/06/16 01:31:14;;;;;;;0.30;0.30;;;;;;;19.82;54.15;101848.41;5071162;28;20086;-85
2021/06/16 01:33:42;;;;;;;0.10;0.10;;;;;;;19.80;54.54;101845.78;5071707;28;20029;-85
2021/06/16 01:36:11;;;;;;;0.10;0.10;;;;;;;19.80;54.60;101844.91;5071599;28;20031;-85
2021/06/16 01:38:38;;;;;;;0.20;0.20;;;;;;;19.75;55.18;101844.22;5071434;28;20522;-86
2021/06/16 01:41:06;;;;;;;0.10;0.10;;;;;;;19.75;54.70;101844.22;5071798;28;20063;-85
2021/06/16 01:43:33;;;;;;;0.73;0.73;;;;;;;19.70;54.52;101839.94;5071305;28;20464;-85
2021/06/16 01:46:01;;;;;;;0.10;0.10;;;;;;;19.70;54.44;101826.50;5071163;28;20033;-85
2021/06/16 01:48:29;;;;;;;7.97;2.17;;;;;;;19.72;54.44;101826.41;5070628;28;20028;-85
2021/06/16 01:50:57;;;;;;;0.10;0.10;;;;;;;19.69;54.68;101818.50;5070382;28;20029;-85
2021/06/16 01:53:24;;;;;;;0.20;0.20;;;;;;;19.68;54.60;101820.28;5070925;28;20033;-85
2021/06/16 01:55:52;;;;;;;0.10;0.10;;;;;;;19.67;54.86;101821.22;5071057;28;20032;-85
2021/06/16 01:58:19;;;;;;;0.00;0.00;;;;;;;19.66;54.68;101824.00;5070816;28;20067;-85
2021/06/16 02:00:46;;;;;;;0.32;0.32;;;;;;;19.62;54.73;101814.31;5071319;28;20031;-85
2021/06/16 02:03:13;;;;;;;0.10;0.10;;;;;;;19.63;54.35;101819.63;5071301;28;20368;-85
2021/06/16 02:05:40;;;;;;;0.10;0.10;;;;;;;19.61;54.48;101816.13;5070829;28;20546;-85
2021/06/16 02:08:12;;;;;;;0.10;0.10;;;;;;;19.59;55.40;101819.81;5070065;28;20044;-86
2021/06/16 02:10:44;;;;;;;0.08;0.08;;;;;;;19.60;55.12;101814.38;5070474;28;20594;-85
2021/06/16 02:13:13;;;;;;;0.10;0.10;;;;;;;19.55;55.46;101821.75;5070570;28;20127;-85
2021/06/16 02:15:47;;;;;;;0.00;0.00;;;;;;;19.56;55.35;101819.03;5070476;28;20032;-85
2021/06/16 02:18:16;;;;;;;0.65;0.63;;;;;;;19.51;55.45;101812.94;5069986;28;20020;-85
2021/06/16 02:20:44;;;;;;;0.00;0.00;;;;;;;19.50;55.00;101811.22;5070752;28;20028;-85
2021/06/16 02:23:11;;;;;;;0.10;0.10;;;;;;;19.47;55.27;101811.31;5070599;28;20028;-85
2021/06/16 02:25:38;;;;;;;0.25;0.25;;;;;;;19.48;55.63;101817.59;5070631;28;20025;-85
2021/06/16 02:28:05;;;;;;;0.10;0.10;;;;;;;19.47;55.64;101813.16;5069778;28;20071;-85
2021/06/16 02:30:31;;;;;;;0.00;0.00;;;;;;;19.45;55.79;101812.34;5070147;28;20472;-85
2021/06/16 02:32:58;;;;;;;0.00;0.00;;;;;;;19.44;55.83;101805.19;5070982;28;20472;-85
2021/06/16 02:35:24;;;;;;;0.08;0.08;;;;;;;19.45;54.91;101807.84;5070044;28;20112;-85
2021/06/16 02:37:58;;;;;;;0.10;0.10;;;;;;;19.47;55.49;101797.03;5069187;28;20033;-85
2021/06/16 02:40:25;;;;;;;0.05;0.05;;;;;;;19.46;55.34;101793.44;5056997;28;20037;-85
2021/06/16 02:42:53;;;;;;;0.10;0.10;;;;;;;19.43;55.83;101792.69;5057317;28;20025;-85
2021/06/16 02:45:22;;;;;;;0.10;0.10;;;;;;;19.40;55.82;101791.00;5056436;28;20477;-84
2021/06/16 02:47:51;;;;;;;1.42;1.33;;;;;;;19.37;55.70;101786.66;5056683;28;20102;-84
2021/06/16 02:50:22;;;;;;;0.10;0.10;;;;;;;19.37;55.92;101783.97;5056998;28;20143;-85
2021/06/16 02:52:50;;;;;;;0.10;0.10;;;;;;;19.34;55.64;101783.22;5056662;28;20021;-85
2021/06/16 02:55:17;;;;;;;0.10;0.10;;;;;;;19.31;55.64;101781.53;5056811;28;20468;-85
2021/06/16 02:57:46;;;;;;;0.00;0.00;;;;;;;19.32;56.03;101785.09;5056283;28;20043;-85
2021/06/16 03:00:15;;;;;;;0.10;0.10;;;;;;;19.30;56.36;101776.22;5056849;28;20040;-85
2021/06/16 03:02:46;;;;;;;0.10;0.10;;;;;;;19.31;55.97;101773.47;5056188;28;20028;-85
2021/06/16 03:05:14;;;;;;;0.00;0.00;;;;;;;19.28;56.14;101770.94;5056538;28;20060;-85
2021/06/16 03:07:42;;;;;;;0.10;0.10;;;;;;;19.26;55.95;101770.09;5056670;28;20040;-85
2021/06/16 03:10:10;;;;;;;0.00;0.00;;;;;;;19.24;56.33;101767.50;5056117;28;20025;-85
2021/06/16 03:12:37;;;;;;;0.15;0.15;;;;;;;19.23;56.25;101768.44;5056449;28;20055;-85
2021/06/16 03:15:06;;;;;;;0.10;0.10;;;;;;;19.24;55.80;101772.00;5055904;28;20029;-85
2021/06/16 03:17:34;;;;;;;0.22;0.20;;;;;;;19.21;56.16;101766.75;5056450;28;20021;-84
2021/06/16 03:20:02;;;;;;;0.00;0.00;;;;;;;19.21;56.19;101766.75;5055929;28;20036;-85
2021/06/16 03:22:30;;;;;;;0.10;0.10;;;;;;;19.21;56.65;101772.13;5055737;28;20029;-85
2021/06/16 03:24:57;;;;;;;0.10;0.10;;;;;;;19.23;55.99;101767.56;5056008;28;20060;-85
2021/06/16 03:27:24;;;;;;;0.00;0.00;;;;;;;19.18;56.40;101767.75;5055541;28;20032;-85
2021/06/16 03:29:53;;;;;;;0.00;0.00;;;;;;;19.21;56.04;101753.31;5056168;28;20033;-84
2021/06/16 03:32:23;;;;;;;0.00;0.00;;;;;;;19.17;56.09;101759.75;5055734;28;20039;-85
2021/06/16 03:34:49;;;;;;;0.05;0.05;;;;;;;19.15;56.19;101757.16;5056054;28;20017;-85
2021/06/16 03:37:17;;;;;;;0.00;0.00;;;;;;;19.16;56.01;101758.88;5056072;28;20115;-85
2021/06/16 03:39:44;;;;;;;0.10;0.10;;;;;;;19.13;56.22;101752.75;5055468;28;20475;-85
2021/06/16 03:42:12;;;;;;;0.15;0.15;;;;;;;19.12;56.20;101751.03;5055455;28;20089;-85
2021/06/16 03:44:39;;;;;;;0.10;0.10;;;;;;;19.12;56.66;101751.88;5055839;28;20021;-85
2021/06/16 03:47:07;;;;;;;0.10;0.10;;;;;;;19.15;56.34;101750.88;5054786;28;20033;-85
2021/06/16 03:49:37;;;;;;;0.08;0.08;;;;;;;19.17;56.45;101749.00;5055169;28;20032;-85
2021/06/16 03:52:04;;;;;;;0.10;0.10;;;;;;;19.16;56.48;101750.81;5055039;28;20037;-86
2021/06/16 03:54:31;;;;;;;0.10;0.10;;;;;;;19.18;56.26;101746.25;5055507;28;20120;-86
2021/06/16 03:56:58;;;;;;;0.10;0.10;;;;;;;19.19;56.34;101747.13;5055163;28;20032;-85
2021/06/16 03:59:24;;;;;;;0.68;0.68;;;;;;;19.21;56.20;101750.63;5055123;28;20380;-84
2021/06/16 04:01:51;;;;;;;0.00;0.00;;;;;;;19.22;56.44;101741.63;5055324;28;20037;-85
2021/06/16 04:04:18;;;;;;;0.00;0.00;;;;;;;19.25;56.29;101744.16;5055398;28;20120;-85
2021/06/16 04:06:45;;;;;;;0.00;0.00;;;;;;;19.26;56.64;101737.88;5055251;28;20029;-84
2021/06/16 04:09:14;;;;;;;0.10;0.10;;;;;;;19.26;56.49;101743.25;5054789;28;20021;-85
2021/06/16 04:11:42;;;;;;;0.08;0.08;;;;;;;19.26;56.47;101743.25;5054867;28;20108;-85
2021/06/16 04:14:09;;;;;;;0.00;0.00;;;;;;;19.27;56.80;101739.63;5055256;28;20055;-85
2021/06/16 04:16:35;;;;;;;0.10;0.10;;;;;;;19.29;56.40;101737.75;5054793;28;20472;-85
2021/06/16 04:19:02;;;;;;;0.17;0.17;;;;;;;19.29;56.45;101735.06;5054473;28;20040;-85
2021/06/16 04:21:28;;;;;;;0.03;0.03;;;;;;;19.31;56.51;101730.47;5054522;28;20029;-84
2021/06/16 04:23:55;;;;;;;0.08;0.08;;;;;;;19.35;56.30;101732.13;5054379;28;20044;-85
2021/06/16 04:26:23;;;;;;;0.08;0.08;;;;;;;19.39;56.46;101724.81;5054499;28;20075;-85
2021/06/16 04:28:49;;;;;;;0.00;0.00;;;;;;;19.39;56.42;101732.88;5054388;28;20028;-84
2021/06/16 04:31:16;;;;;;;0.00;0.00;;;;;;;19.43;56.63;101728.19;5054219;28;20091;-85
2021/06/16 04:33:42;;;;;;;0.10;0.10;;;;;;;19.46;56.95;101725.41;5055190;28;20372;-85
2021/06/16 04:36:08;;;;;;;0.10;0.10;;;;;;;19.52;56.65;101728.69;5054564;28;20037;-85
2021/06/16 04:38:35;;;;;;;0.03;0.03;;;;;;;19.55;56.92;101733.03;5054674;28;20072;-86
2021/06/16 04:41:03;;;;;;;0.13;0.13;;;;;;;19.63;56.15;101725.53;5054505;28;20040;-84
2021/06/16 04:43:29;;;;;;;0.03;0.03;;;;;;;19.64;56.34;101724.59;5054528;28;20033;-85
2021/06/16 04:45:56;;;;;;;0.17;0.17;;;;;;;19.73;55.73;101726.00;5054867;28;20025;-85
2021/06/16 04:48:22;;;;;;;0.20;0.20;;;;;;;19.76;56.08;101719.59;5054425;28;20037;-84
2021/06/16 04:50:48;;;;;;;0.00;0.00;;;;;;;19.80;56.21;101723.91;5054379;28;20031;-85
2021/06/16 04:53:15;;;;;;;0.03;0.03;;;;;;;19.85;55.97;101717.41;5054037;28;20033;-85
2021/06/16 04:55:41;;;;;;;0.00;0.00;;;;;;;19.92;55.74;101709.06;5054533;28;20079;-85
2021/06/16 04:58:07;;;;;;;0.00;0.00;;;;;;;19.99;55.57;101711.41;5053898;28;20032;-85
2021/06/16 05:00:34;;;;;;;0.20;0.20;;;;;;;20.01;55.98;101712.22;5054383;28;20028;-85
2021/06/16 05:03:00;;;;;;;0.35;0.35;;;;;;;20.07;55.62;101707.50;5054016;28;20029;-84
2021/06/16 05:05:27;;;;;;;0.00;0.00;;;;;;;20.14;55.03;101703.59;5054390;28;20037;-84
2021/06/16 05:07:53;;;;;;;0.10;0.10;;;;;;;20.16;55.42;101715.13;5053806;28;20494;-85
2021/06/16 05:10:20;;;;;;;0.00;0.00;;;;;;;20.25;54.86;101706.63;5053811;28;20035;-85
2021/06/16 05:12:47;;;;;;;0.00;0.00;;;;;;;20.27;55.14;101714.63;5054103;28;20025;-83
2021/06/16 05:15:15;;;;;;;0.20;0.20;;;;;;;20.33;54.84;101708.97;5053303;28;20040;-83
2021/06/16 05:17:42;;;;;;;0.00;0.00;;;;;;;20.36;54.82;101708.78;5053297;28;20502;-84
2021/06/16 05:20:13;;;;;;;0.10;0.10;;;;;;;20.42;54.84;101707.66;5053822;28;20486;-84
2021/06/16 05:22:40;;;;;;;0.03;0.03;;;;;;;20.41;53.92;101709.47;5053640;28;20036;-83
2021/06/16 05:25:08;;;;;;;0.03;0.03;;;;;;;20.50;54.45;101703.63;5054310;28;20071;-84
2021/06/16 05:27:35;;;;;;;0.10;0.10;;;;;;;20.56;54.33;101699.78;5053169;28;20041;-84
2021/06/16 05:30:03;;;;;;;0.20;0.20;;;;;;;20.60;54.17;101695.09;5053623;28;20021;-83
2021/06/16 05:32:29;;;;;;;0.20;0.20;;;;;;;20.63;54.16;101690.44;5054532;28;20029;-87
2021/06/16 05:34:56;;;;;;;0.10;0.10;;;;;;;20.72;54.17;101689.16;5054380;28;20425;-87
2021/06/16 05:37:23;;;;;;;0.10;0.10;;;;;;;20.77;53.92;101697.00;5053879;28;20113;-88
2021/06/16 05:39:50;;;;;;;0.08;0.08;;;;;;;20.82;53.81;101689.56;5054097;28;20460;-88
2021/06/16 05:42:16;;;;;;;0.10;0.10;;;;;;;20.86;53.44;101693.88;5054508;28;20112;-89
2021/06/16 05:44:42;;;;;;;0.10;0.10;;;;;;;20.92;53.45;101690.00;5053868;28;20032;-89
2021/06/16 05:47:08;;;;;;;0.00;0.00;;;;;;;20.90;53.61;101681.09;5053499;28;20112;-87
2021/06/16 05:49:34;;;;;;;0.70;0.65;;;;;;;20.94;53.30;101683.56;5053201;28;20032;-86
2021/06/16 05:52:01;;;;;;;0.10;0.10;;;;;;;21.03;53.41;101686.75;5053869;28;20033;-86
2021/06/16 05:54:27;;;;;;;0.00;0.00;;;;;;;21.11;52.95;101676.44;5053371;28;20120;-84
2021/06/16 05:56:54;;;;;;;0.13;0.13;;;;;;;21.12;52.91;101670.13;5053381;28;20488;-84
2021/06/16 05:59:20;;;;;;;0.10;0.10;;;;;;;21.20;53.15;101667.91;5053589;28;20065;-83
2021/06/16 06:01:46;;;;;;;0.08;0.08;;;;;;;21.27;52.72;101663.94;5053493;28;20096;-90
2021/06/16 06:04:12;;;;;;;0.00;0.00;;;;;;;21.30;53.02;101661.06;5053629;28;20057;-93
2021/06/16 06:06:39;;;;;;;0.75;0.45;;;;;;;21.31;52.78;101662.81;5053390;28;20112;-88
2021/06/16 06:09:08;;;;;;;0.43;0.43;;;;;;;21.47;52.34;101654.81;5067668;22;20079;-82
2021/06/16 06:11:36;;;;;;;0.10;0.10;;;;;;;21.52;52.38;101659.06;5054590;28;20057;-82
2021/06/16 06:14:04;;;;;;;0.00;0.00;;;;;;;21.56;52.60;101664.25;5055717;28;20028;-82
2021/06/16 06:16:30;;;;;;;0.10;0.10;;;;;;;21.62;52.25;101653.16;5056681;28;20497;-82
2021/06/16 06:18:56;;;;;;;0.10;0.10;;;;;;;21.62;52.17;101658.53;5051277;28;20033;-82
2021/06/16 06:21:23;;;;;;;0.10;0.10;;;;;;;21.67;51.77;101649.31;5041024;28;20084;-83
2021/06/16 06:23:49;;;;;;;0.10;0.10;;;;;;;21.81;51.88;101652.16;5037712;28;20064;-83
2021/06/16 06:26:15;;;;;;;0.95;0.95;;;;;;;21.82;52.47;101643.09;5033267;28;20099;-84
2021/06/16 06:28:43;;;;;;;0.03;0.03;;;;;;;21.95;51.97;101641.44;5029973;28;20398;-83
2021/06/16 06:31:09;;;;;;;0.03;0.03;;;;;;;21.97;51.84;101634.16;5024948;28;20602;-80
2021/06/16 06:33:35;;;;;;;0.10;0.10;;;;;;;22.07;51.71;101633.63;5026289;28;20476;-82
2021/06/16 06:36:01;;;;;;;0.00;0.00;;;;;;;22.16;51.18;101640.34;5031547;28;20053;-82
2021/06/16 06:38:27;;;;;;;0.43;0.43;;;;;;;22.23;51.46;101630.94;5032761;28;20042;-83
2021/06/16 06:40:54;;;;;;;0.10;0.10;;;;;;;22.29;51.27;101626.06;5027500;28;20028;-82
2021/06/16 06:43:20;;;;;;;0.10;0.10;;;;;;;22.40;51.03;101627.31;5033935;28;20106;-85
2021/06/16 06:45:46;;;;;;;0.38;0.38;;;;;;;22.49;51.20;101625.91;5022929;28;20485;-84
2021/06/16 06:48:12;;;;;;;0.08;0.08;;;;;;;22.57;50.91;101626.34;5032958;28;20108;-84
2021/06/16 06:50:41;;;;;;;0.10;0.10;;;;;;;22.61;50.60;101620.66;5030336;28;20026;-83
2021/06/16 06:53:07;;;;;;;0.10;0.10;;;;;;;22.71;49.95;101617.44;5048393;28;20148;-83
2021/06/16 06:55:33;;;;;;;0.00;0.00;;;;;;;22.74;49.94;101611.81;5025130;28;20033;-82
2021/06/16 06:58:00;;;;;;;0.00;0.00;;;;;;;22.83;49.09;101610.41;5034243;28;20025;-83
2021/06/16 07:00:26;;;;;;;0.10;0.10;;;;;;;22.85;50.08;101611.19;5035258;28;20030;-82
2021/06/16 07:02:52;;;;;;;0.10;0.10;;;;;;;23.03;49.54;101606.50;5035459;28;20065;-83
2021/06/16 07:05:18;;;;;;;0.10;0.10;;;;;;;23.14;48.93;101612.16;5035576;28;20026;-83
2021/06/16 07:07:44;;;;;;;0.00;0.00;;;;;;;23.14;49.23;101609.44;5028302;28;20381;-82
2021/06/16 07:10:11;;;;;;;0.65;0.65;;;;;;;23.34;48.97;101601.97;5039401;28;20503;-82
2021/06/16 07:12:37;;;;;;;0.10;0.10;;;;;;;23.41;48.77;101601.50;5024758;28;20032;-83
2021/06/16 07:15:04;;;;;;;0.45;0.45;;;;;;;23.43;49.32;101598.69;5026217;28;20025;-82
2021/06/16 07:17:31;;;;;;;0.20;0.20;;;;;;;23.58;48.68;101599.56;5024069;28;20042;-82
2021/06/16 07:19:58;;;;;;;0.10;0.10;;;;;;;23.73;47.83;101592.31;5025197;28;20113;-83
2021/06/16 07:22:27;;;;;;;0.15;0.13;;;;;;;23.83;48.10;101598.88;5022750;28;20476;-82
2021/06/16 07:24:53;;;;;;;0.10;0.10;;;;;;;23.94;47.55;101589.19;5019677;28;20034;-82
2021/06/16 07:27:19;;;;;;;0.10;0.10;;;;;;;24.04;47.48;101587.66;5021136;28;20033;-82
2021/06/16 07:29:45;;;;;;;0.10;0.10;;;;;;;24.05;47.54;101589.38;5029621;28;20040;-83
2021/06/16 07:32:11;;;;;;;0.08;0.08;;;;;;;24.20;47.19;101590.19;5033290;28;20025;-82
2021/06/16 07:34:38;;;;;;;0.65;0.57;;;;;;;24.23;46.79;101585.47;5027772;28;20053;-82
2021/06/16 07:37:04;;;;;;;0.10;0.10;;;;;;;24.38;46.67;101586.28;5030592;28;20095;-83
2021/06/16 07:39:31;;;;;;;0.50;0.50;;;;;;;24.28;45.39;101578.88;5037768;22;20101;-84
2021/06/16 07:41:57;;;;;;;0.10;0.10;;;;;;;24.54;44.55;101578.00;5022687;28;20044;-85
2021/06/16 07:44:23;;;;;;;0.00;0.00;;;;;;;24.70;45.77;101574.28;5013823;28;20087;-86
2021/06/16 07:46:49;;;;;;;0.10;0.10;;;;;;;24.79;45.91;101573.63;5017844;28;20489;-86
2021/06/16 07:49:15;;;;;;;0.10;0.10;;;;;;;24.86;45.31;101569.53;4996103;28;20513;-84
2021/06/16 07:51:42;;;;;;;0.00;0.00;;;;;;;24.98;45.26;101570.50;4994977;28;20097;-84
2021/06/16 07:54:11;;;;;;;0.38;0.38;;;;;;;25.08;45.05;101565.31;4998330;28;20032;-86
2021/06/16 07:56:39;;;;;;;1.17;1.08;;;;;;;25.18;45.10;101571.84;4998172;28;20013;-86
2021/06/16 07:59:05;;;;;;;0.00;0.00;;;;;;;25.32;44.93;101572.69;4997948;28;20084;-85
2021/06/16 08:01:32;;;;;;;0.10;0.10;;;;;;;25.39;44.20;101565.03;5005292;28;20031;-91
2021/06/16 08:03:58;;;;;;;0.10;0.10;;;;;;;25.45;44.47;101562.75;4991840;28;20065;-92
2021/06/16 08:06:24;;;;;;;0.00;0.00;;;;;;;25.54;43.46;101563.06;4992487;28;20080;-84
2021/06/16 08:08:50;;;;;;;0.10;0.10;;;;;;;25.38;43.25;101564.16;4994612;28;20034;-84
2021/06/16 08:11:17;;;;;;;0.28;0.20;;;;;;;25.47;41.83;101559.91;4975479;28;20089;-86
2021/06/16 08:13:43;;;;;;;0.00;0.00;;;;;;;25.66;42.54;101556.75;4992040;28;20474;-84
2021/06/16 08:16:21;;;;;;;0.10;0.10;;;;;;;25.84;42.57;101552.69;5014123;28;20374;-86
2021/06/16 08:18:49;;;;;;;0.00;0.00;;;;;;;25.75;42.82;101556.06;5013438;28;20033;-85
2021/06/16 08:21:16;;;;;;;0.00;0.00;;;;;;;25.96;42.83;101561.75;5011590;28;20030;-85
2021/06/16 08:23:44;;;;;;;0.05;0.05;;;;;;;26.10;42.16;101547.19;5013803;28;20092;-86
2021/06/16 08:26:11;;;;;;;0.20;0.20;;;;;;;26.14;41.48;101551.44;5010795;28;20038;-80
2021/06/16 08:28:37;;;;;;;0.30;0.30;;;;;;;26.32;42.48;101551.00;5003711;28;20038;-84
2021/06/16 08:31:04;;;;;;;0.17;0.17;;;;;;;26.34;42.19;101545.47;5002637;28;20544;-84
2021/06/16 08:33:30;;;;;;;0.00;0.00;;;;;;;26.41;42.10;101538.59;5013812;28;20025;-84
2021/06/16 08:35:57;;;;;;;0.00;0.00;;;;;;;26.51;41.27;101536.88;5013458;28;20026;-84
2021/06/16 08:38:23;;;;;;;0.10;0.10;;;;;;;26.63;40.75;101543.22;5011732;28;20038;-85
2021/06/16 08:40:49;;;;;;;0.10;0.10;;;;;;;26.77;41.83;101539.47;5013693;28;20738;-84
2021/06/16 08:43:16;;;;;;;0.00;0.00;;;;;;;26.73;40.64;101533.38;5014023;28;20030;-82
2021/06/16 08:45:43;;;;;;;0.00;0.00;;;;;;;26.84;41.29;101534.41;4997796;28;20477;-88
2021/06/16 08:48:10;;;;;;;1.25;0.50;;;;;;;26.91;38.83;101536.53;4994273;28;20497;-85
2021/06/16 08:50:37;;;;;;;0.00;0.00;;;;;;;27.06;40.60;101534.44;5002875;28;20252;-84
2021/06/16 08:53:04;;;;;;;0.00;0.00;;;;;;;27.16;40.77;101529.13;4993036;28;20062;-85
2021/06/16 08:55:30;;;;;;;0.03;0.03;;;;;;;27.26;40.83;101534.72;4998035;28;20030;-83
2021/06/16 08:57:56;;;;;;;0.00;0.00;;;;;;;27.31;41.07;101537.94;4993371;28;20038;-84
2021/06/16 09:00:24;;;;;;;0.22;0.22;;;;;;;27.41;41.08;101538.94;5000914;28;20039;-84
2021/06/16 09:02:50;;;;;;;0.20;0.20;;;;;;;27.49;40.17;101538.34;4993622;28;20101;-83
2021/06/16 09:05:17;;;;;;;0.00;0.00;;;;;;;27.62;39.19;101540.91;4994872;28;20031;-85
2021/06/16 09:07:45;;;;;;;0.00;0.00;;;;;;;27.72;38.52;101539.16;5014234;22;20050;-86
2021/06/16 09:12:59;;;;;;;0.00;0.00;;;;;;;27.95;39.29;101524.66;5079626;28;20172;-85
2021/06/16 09:15:29;;;;;;;0.08;0.08;;;;;;;28.02;37.95;101521.28;5078899;28;20114;-85
2021/06/16 09:18:15;;;;;;;0.00;0.00;;;;;;;28.12;38.99;101517.81;5073869;28;20078;-84
2021/06/16 09:20:46;;;;;;;0.00;0.00;;;;;;;28.21;38.83;101514.31;5057030;28;20041;-83
2021/06/16 09:23:29;;;;;;;0.00;0.00;;;;;;;28.40;38.90;101500.00;5062153;28;20036;-83
2021/06/16 09:26:12;;;;;;;0.00;0.00;;;;;;;28.52;37.83;101506.25;5065461;28;20119;-84
2021/06/16 09:28:41;;;;;;;0.20;0.20;;;;;;;28.54;37.84;101507.00;5065379;28;20056;-84
2021/06/16 09:31:10;;;;;;;0.13;0.13;;;;;;;28.52;38.35;101506.25;5064703;28;20035;-84
2021/06/16 09:33:38;;;;;;;0.00;0.00;;;;;;;28.66;37.38;101502.31;5065524;28;20029;-84
2021/06/16 09:36:13;;;;;;;0.47;0.47;;;;;;;28.79;38.42;101499.44;5065220;28;20029;-85
2021/06/16 09:38:42;;;;;;;0.22;0.22;;;;;;;28.86;37.51;101497.88;5059420;28;20486;-84
2021/06/16 09:41:10;;;;;;;0.17;0.17;;;;;;;28.91;38.14;101495.59;5060417;28;20086;-83
2021/06/16 09:43:38;;;;;;;0.00;0.00;;;;;;;29.04;38.38;101488.06;5060789;28;20036;-86
2021/06/16 09:46:08;;;;;;;0.15;0.15;;;;;;;29.00;37.85;101494.81;5062900;28;20403;-82
2021/06/16 09:48:37;;;;;;;0.00;0.00;;;;;;;29.14;36.99;101490.84;5062387;28;20020;-82
2021/06/16 09:53:55;;;;;;;2.40;0.82;;;;;;;29.28;36.90;101488.75;5072142;27;20171;-84
2021/06/16 09:56:22;;;;;;;0.10;0.10;;;;;;;29.24;35.88;101485.44;5066680;28;20032;-83
2021/06/16 09:58:48;;;;;;;0.13;0.13;;;;;;;29.42;37.35;101480.19;5056117;28;20039;-83
2021/06/16 10:01:14;;;;;;;0.10;0.10;;;;;;;29.52;37.72;101472.94;5048705;28;20048;-83
2021/06/16 10:03:41;;;;;;;0.22;0.22;;;;;;;29.57;35.75;101475.22;5049446;28;20040;-83
2021/06/16 10:06:10;;;;;;;0.15;0.15;;;;;;;29.75;36.43;101483.59;5049295;28;20022;-83
2021/06/16 10:11:20;;;;;;;0.10;0.10;;;;;;;29.84;35.90;101477.28;5056530;27;20177;-83
2021/06/16 10:13:48;;;;;;;0.05;0.05;;;;;;;29.89;35.08;101476.00;5066356;28;20499;-83
2021/06/16 10:16:15;;;;;;;0.20;0.20;;;;;;;29.96;35.29;101458.94;5060913;28;20079;-82
2021/06/16 10:18:43;;;;;;;0.00;0.00;;;;;;;29.94;36.05;101471.84;5048867;28;20040;-82
2021/06/16 10:21:11;;;;;;;0.10;0.10;;;;;;;30.06;34.95;101468.97;5040119;28;20038;-83
2021/06/16 10:23:38;;;;;;;0.15;0.15;;;;;;;30.20;34.44;101460.38;5038871;28;20050;-83
2021/06/16 10:26:09;;;;;;;2.80;0.82;;;;;;;30.23;35.27;101470.13;5040248;28;20029;-83
2021/06/16 10:28:40;;;;;;;0.20;0.20;;;;;;;30.37;35.89;101471.56;5048506;28;20033;-82
2021/06/16 10:31:08;;;;;;;0.08;0.08;;;;;;;30.46;35.48;101467.97;5049139;28;20075;-83
2021/06/16 10:33:39;;;;;;;0.20;0.20;;;;;;;30.48;34.78;101464.09;5049249;28;20465;-83
2021/06/16 10:44:28;;;;;;;0.00;0.00;;;;;;;30.83;35.08;101453.53;5063204;27;20165;-86
2021/06/16 10:47:07;;;;;;;0.13;0.13;;;;;;;30.96;33.96;101462.22;5061733;28;20025;-78
2021/06/16 10:52:13;;;;;;;0.00;0.00;;;;;;;30.92;34.76;101471.75;5068604;27;20168;-82
2021/06/16 10:54:52;;;;;;;0.10;0.10;;;;;;;31.09;33.43;101463.81;5070282;28;20040;-83
2021/06/16 10:57:18;;;;;;;0.00;0.00;;;;;;;31.06;35.33;101456.72;5071138;28;20033;-82
2021/06/16 11:05:22;;;;;;;1.20;0.22;;;;;;;31.48;34.64;101449.94;5123893;27;20153;-82
2021/06/16 11:07:49;;;;;;;0.10;0.10;;;;;;;31.45;33.78;101450.22;5090906;28;20028;-81
2021/06/16 11:10:17;;;;;;;0.20;0.20;;;;;;;31.49;33.78;101435.22;5091252;28;20467;-82
2021/06/16 11:12:46;;;;;;;0.40;0.35;;;;;;;31.57;34.68;101440.78;5091435;28;20028;-83
2021/06/16 11:18:25;;;;;;;0.00;0.00;;;;;;;31.53;33.15;101430.28;5121292;27;20157;-80
2021/06/16 11:20:58;;;;;;;1.08;0.50;;;;;;;31.80;33.15;101429.38;5090883;28;20377;-80
2021/06/16 11:23:27;;;;;;;0.10;0.10;;;;;;;31.78;34.22;101423.22;5091109;28;20024;-83
2021/06/16 11:25:54;;;;;;;0.28;0.10;;;;;;;31.88;33.86;101426.75;5086051;28;20032;-84
2021/06/16 11:28:34;;;;;;;0.00;0.00;;;;;;;31.94;33.08;101406.94;5090145;28;20105;-83
2021/06/16 11:33:49;;;;;;;0.10;0.10;;;;;;;32.11;33.51;101407.06;5077741;28;20163;-87
2021/06/16 11:36:27;;;;;;;0.47;0.47;;;;;;;32.32;33.80;101394.91;5079237;28;20021;-85
2021/06/16 11:38:56;;;;;;;0.03;0.03;;;;;;;32.41;32.78;101392.06;5045647;28;20041;-86
2021/06/16 11:41:25;;;;;;;0.20;0.20;;;;;;;32.43;32.60;101394.66;5053649;28;20104;-84
2021/06/16 11:46:39;;;;;;;0.00;0.00;;;;;;;32.63;32.86;101386.22;5071233;28;193208;-84
2021/06/16 11:49:16;;;;;;;1.55;0.32;;;;;;;32.66;33.26;101388.59;5066090;28;20116;-84
2021/06/16 11:51:49;;;;;;;0.38;0.35;;;;;;;32.73;32.76;101384.19;5060462;28;20138;-84
2021/06/16 11:54:20;;;;;;;1.77;1.15;;;;;;;32.83;33.41;101384.94;5061026;28;20025;-84
2021/06/16 11:56:52;;;;;;;0.25;0.25;;;;;;;32.86;31.48;101381.91;5060076;28;20544;-84
2021/06/16 11:59:39;;;;;;;0.68;0.68;;;;;;;33.08;31.09;101381.47;5056612;28;20033;-85
2021/06/16 12:02:19;;;;;;;0.20;0.20;;;;;;;33.00;32.35;101380.41;5058505;28;20028;-85
2021/06/16 12:05:07;;;;;;;0.10;0.10;;;;;;;33.02;30.93;101382.97;5058237;28;20033;-86
2021/06/16 12:10:07;;;;;;;0.28;0.28;;;;;;;33.11;31.65;101376.50;5009149;28;19921;-85
2021/06/16 12:12:55;;;;;;;0.00;0.00;;;;;;;33.22;31.20;101367.94;5010576;28;20066;-86
2021/06/16 12:15:24;;;;;;;0.00;0.00;;;;;;;33.30;32.77;101374.50;5010438;28;20034;-86